AirNav   Phillips 66 Aviation Fuel
 
 946 users online  

AL27 Headquarters Airport
Centre, Alabama, USA

GOING TO CENTRE?


FAA INFORMATION EFFECTIVE 03 JANUARY 2019

Location

FAA Identifier: AL27
Lat/Long: 34-06-20.3500N / 085-33-56.8580W
34-06.339167N / 085-33.947633W
34.1056528 / -85.5657939
(estimated)
Elevation: 610 ft. / 186 m (estimated)
Variation: 01W (1985)
From city: 7 miles SE of CENTRE, AL
Time zone: UTC -6 (UTC -5 during Daylight Saving Time)
Zip code: 35960

Airport Operations

Airport use: Private use, PERSONAL USE ONLY.
Activation date: 08/1991
Control tower: no
ARTCC: ATLANTA CENTER
FSS: ANNISTON FLIGHT SERVICE STATION
Attendance: CONTINUOUS
Wind indicator: yes
Segmented circle: no

Nearby radio navigation aids

VOR radial/distance  VOR name  Freq  Var
RMGr260/22.4ROME VORTAC115.4001E
GADr071/26.9GADSDEN VOR/DME112.3002E
TDGr035/39.7TALLADEGA VOR/DME108.8002E

 
NDB name  Hdg/Dist  Freq  Var  ID
FORT PAYNE172/25.542604WFTP ..-. - .--.
CARTERSVILLE265/36.330804WEVZ . ...- --..
CALHOUN246/36.332305WOUK --- ..- -.-
CARROLLTON330/39.027804WGPQ --. .--. --.-

Airport Services

Runway Information

Runway 18/36

Dimensions: 2000 x 50 ft. / 610 x 15 m
Surface: turf
RUNWAY 18  RUNWAY 36
Traffic pattern: leftleft

Airport Ownership and Management from official FAA records

Ownership: Privately-owned
Owner: DONALD RAY SMITH JR.
7785 HWY 411 N.
CENTRE, AL 35960
Phone (404) 680-0261
Manager: DONALD RAY SMITH JR.
7785 HWY 411 N.
CENTRE, AL 35960
Phone (404) 680-0261
CELL: 404-680-0261

Airport Operational Statistics

Aircraft based on the field: 1
Single engine airplanes: 1
    

Instrument Procedures

There are no published instrument procedures at AL27.

Some nearby airports with instrument procedures:

KPYP - Centre-Piedmont-Cherokee County Regional Airport (2 nm SW)
4A4 - Polk County Airport - Cornelius Moore Field (21 nm E)
4A9 - Isbell Field Airport (23 nm N)
KRMG - Richard B. Russell Regional Airport - J.H. Towers Field (25 nm NE)
KGAD - Northeast Alabama Regional Airport (27 nm W)
 
Loc | Ops | Rwys | IFR | FBO | Links
Com | Nav | Svcs | Stats | Notes
Area around AL27 (Headquarters Airport)
 
Road maps at: MapQuest Bing Google
 
Aerial photo
No photo
 
Sectional chart

 
Airport distance calculator
Flying to Headquarters Airport? Find the distance to fly.

From to AL27

Sunrise and sunset
Times for 21-Jan-2019
 Local
(UTC-6)
 Zulu
(UTC)
Morning civil twilight06:2012:20
Sunrise06:4712:47
Sunset17:0023:00
Evening civil twilight17:2723:27

Current date and time
Zulu (UTC)  22-Jan-2019 01:20:17
Local (UTC-6)  21-Jan-2019 19:20:17
 
METAR
K4A9 
23nm N 
220055Z AUTO 04006KT 10SM CLR M01/M12 A3038 RMK AO2 T10091124
KRMG 
25nm NE 
220053Z AUTO 05004KT 10SM CLR M01/M11 A3041 RMK AO2 SLP303 T10061111 $
KGAD 
26nm W 
220056Z AUTO 06004KT 10SM CLR M01/M07 A3040 RMK AO2 SLP304 T10061072 FZRANO
KPUJ 
33nm E 
212130Z AUTO 00000KT 10SM CLR 02/M13 A3037 RMK AO2
KANB 
34nm SW 
220053Z AUTO 07005KT 10SM CLR 02/M07 A3038 RMK AO2 SLP302 T00171067
K8A0 
35nm W 
220055Z AUTO 00000KT 10SM CLR 00/M12 A3036 RMK AO2
KCTJ 
35nm SE 
220055Z AUTO 00000KT 10SM 00/M12 A3041 RMK AO2 T00041121
KVPC 
36nm E 
220053Z AUTO 00000KT 10SM CLR M01/M11 A3042 RMK AO2 SLP304 T10111106
KCZL 
37nm NE 
220055Z AUTO 04003KT 10SM CLR 00/M11 A3045 RMK AO2
K9A5 
38nm N 
220055Z AUTO 00000KT 10SM CLR M03/M12 A3044 RMK AO2 T10261122
TAF
KANB 
34nm SW 
211734Z 2118/2218 VRB05KT P6SM SCT250 FM220000 06002KT P6SM SKC FM220700 08007KT P6SM SKC
KASN 
40nm SW 
211734Z 2118/2218 05008KT P6SM SCT250 FM220000 06003KT P6SM SKC FM220700 13007KT P6SM SKC
NOTAMs
Click for the latest NOTAMs
NOTAMs are issued by the DoD/FAA and will open in a separate window not controlled by AirNav.

 

 
 

Would you like to see your business listed on this page?

 If your business provides an interesting product or service to pilots, flight crews, aircraft, or users of the Headquarters Airport, you should consider listing it here.  To start the listing process, click on the button below
 
Add a business
 

Other Pages about Headquarters Airport

Update a link
 
Copyright © AirNav, LLC. All rights reserved. Privacy Policy  Contact